sensor_id;sensor_type;location;lat;lon;timestamp;P1;durP1;ratioP1;P2;durP2;ratioP2
81154;SDS011;70631;50.436;7.826;2023-08-24T00:00:43;7.53;;;2.60;;
81154;SDS011;70631;50.436;7.826;2023-08-24T00:03:08;6.07;;;2.58;;
81154;SDS011;70631;50.436;7.826;2023-08-24T00:05:34;4.23;;;2.90;;
81154;SDS011;70631;50.436;7.826;2023-08-24T00:08:07;5.00;;;2.47;;
81154;SDS011;70631;50.436;7.826;2023-08-24T00:10:33;4.55;;;2.63;;
81154;SDS011;70631;50.436;7.826;2023-08-24T00:12:59;2.50;;;2.30;;
81154;SDS011;70631;50.436;7.826;2023-08-24T00:15:25;6.20;;;2.50;;
81154;SDS011;70631;50.436;7.826;2023-08-24T00:17:50;5.93;;;2.92;;
81154;SDS011;70631;50.436;7.826;2023-08-24T00:20:16;3.30;;;2.80;;
81154;SDS011;70631;50.436;7.826;2023-08-24T00:22:41;8.03;;;2.73;;
81154;SDS011;70631;50.436;7.826;2023-08-24T00:25:07;2.63;;;2.30;;
81154;SDS011;70631;50.436;7.826;2023-08-24T00:27:33;7.25;;;2.92;;
81154;SDS011;70631;50.436;7.826;2023-08-24T00:30:00;7.00;;;2.70;;
81154;SDS011;70631;50.436;7.826;2023-08-24T00:32:25;7.87;;;2.77;;
81154;SDS011;70631;50.436;7.826;2023-08-24T00:34:50;6.53;;;2.67;;
81154;SDS011;70631;50.436;7.826;2023-08-24T00:37:15;3.80;;;2.43;;
81154;SDS011;70631;50.436;7.826;2023-08-24T00:39:41;4.47;;;2.80;;
81154;SDS011;70631;50.436;7.826;2023-08-24T00:42:06;7.03;;;2.90;;
81154;SDS011;70631;50.436;7.826;2023-08-24T00:44:32;5.30;;;3.20;;
81154;SDS011;70631;50.436;7.826;2023-08-24T00:46:57;4.93;;;2.72;;
81154;SDS011;70631;50.436;7.826;2023-08-24T00:49:23;3.67;;;2.38;;
81154;SDS011;70631;50.436;7.826;2023-08-24T00:51:49;4.07;;;2.60;;
81154;SDS011;70631;50.436;7.826;2023-08-24T00:54:15;5.43;;;2.63;;
81154;SDS011;70631;50.436;7.826;2023-08-24T00:56:41;4.10;;;2.60;;
81154;SDS011;70631;50.436;7.826;2023-08-24T00:59:06;3.93;;;3.03;;
81154;SDS011;70631;50.436;7.826;2023-08-24T01:01:32;2.72;;;2.53;;
81154;SDS011;70631;50.436;7.826;2023-08-24T01:03:58;4.25;;;2.65;;
81154;SDS011;70631;50.436;7.826;2023-08-24T01:06:23;4.17;;;2.70;;
81154;SDS011;70631;50.436;7.826;2023-08-24T01:08:48;5.03;;;3.00;;
81154;SDS011;70631;50.436;7.826;2023-08-24T01:17:13;3.78;;;2.47;;
81154;SDS011;70631;50.436;7.826;2023-08-24T01:19:41;6.82;;;3.22;;
81154;SDS011;70631;50.436;7.826;2023-08-24T01:25:01;6.43;;;2.83;;
81154;SDS011;70631;50.436;7.826;2023-08-24T01:27:34;5.75;;;2.92;;
81154;SDS011;70631;50.436;7.826;2023-08-24T01:30:02;4.25;;;2.90;;
81154;SDS011;70631;50.436;7.826;2023-08-24T01:32:32;2.72;;;2.35;;
81154;SDS011;70631;50.436;7.826;2023-08-24T01:35:02;4.45;;;3.50;;
81154;SDS011;70631;50.436;7.826;2023-08-24T01:37:30;4.80;;;2.53;;
81154;SDS011;70631;50.436;7.826;2023-08-24T01:42:43;4.10;;;2.72;;
81154;SDS011;70631;50.436;7.826;2023-08-24T01:45:13;3.65;;;2.88;;
81154;SDS011;70631;50.436;7.826;2023-08-24T01:47:43;4.78;;;2.67;;
81154;SDS011;70631;50.436;7.826;2023-08-24T01:50:10;5.38;;;2.75;;
81154;SDS011;70631;50.436;7.826;2023-08-24T01:52:35;5.03;;;2.63;;
81154;SDS011;70631;50.436;7.826;2023-08-24T01:55:00;3.95;;;2.45;;
81154;SDS011;70631;50.436;7.826;2023-08-24T01:57:26;4.60;;;2.67;;
81154;SDS011;70631;50.436;7.826;2023-08-24T01:59:51;4.97;;;2.80;;
81154;SDS011;70631;50.436;7.826;2023-08-24T02:02:16;5.33;;;2.63;;
81154;SDS011;70631;50.436;7.826;2023-08-24T02:04:42;4.17;;;2.70;;
81154;SDS011;70631;50.436;7.826;2023-08-24T02:07:07;3.58;;;2.63;;
81154;SDS011;70631;50.436;7.826;2023-08-24T02:09:33;7.43;;;3.20;;
81154;SDS011;70631;50.436;7.826;2023-08-24T02:11:58;4.10;;;3.70;;
81154;SDS011;70631;50.436;7.826;2023-08-24T02:14:23;6.37;;;3.20;;
81154;SDS011;70631;50.436;7.826;2023-08-24T02:16:49;5.33;;;3.10;;
81154;SDS011;70631;50.436;7.826;2023-08-24T02:19:14;4.03;;;3.23;;
81154;SDS011;70631;50.436;7.826;2023-08-24T02:21:39;4.93;;;3.50;;
81154;SDS011;70631;50.436;7.826;2023-08-24T02:24:04;3.57;;;3.27;;
81154;SDS011;70631;50.436;7.826;2023-08-24T02:26:30;7.53;;;3.10;;
81154;SDS011;70631;50.436;7.826;2023-08-24T02:28:56;7.00;;;2.90;;
81154;SDS011;70631;50.436;7.826;2023-08-24T02:31:22;4.75;;;2.65;;
81154;SDS011;70631;50.436;7.826;2023-08-24T02:33:47;3.90;;;2.90;;
81154;SDS011;70631;50.436;7.826;2023-08-24T02:36:13;4.22;;;3.20;;
81154;SDS011;70631;50.436;7.826;2023-08-24T02:38:39;4.60;;;3.05;;
81154;SDS011;70631;50.436;7.826;2023-08-24T02:41:05;3.70;;;2.57;;
81154;SDS011;70631;50.436;7.826;2023-08-24T02:43:31;4.60;;;3.42;;
81154;SDS011;70631;50.436;7.826;2023-08-24T02:46:01;6.85;;;3.22;;
81154;SDS011;70631;50.436;7.826;2023-08-24T02:48:28;6.00;;;3.42;;
81154;SDS011;70631;50.436;7.826;2023-08-24T02:50:53;6.72;;;2.78;;
81154;SDS011;70631;50.436;7.826;2023-08-24T02:53:19;5.30;;;3.00;;
81154;SDS011;70631;50.436;7.826;2023-08-24T02:55:44;3.80;;;3.00;;
81154;SDS011;70631;50.436;7.826;2023-08-24T02:58:09;4.23;;;3.07;;
81154;SDS011;70631;50.436;7.826;2023-08-24T03:00:37;4.60;;;3.07;;
81154;SDS011;70631;50.436;7.826;2023-08-24T03:03:03;6.38;;;2.97;;
81154;SDS011;70631;50.436;7.826;2023-08-24T03:05:30;4.60;;;2.88;;
81154;SDS011;70631;50.436;7.826;2023-08-24T03:07:56;4.43;;;3.10;;
81154;SDS011;70631;50.436;7.826;2023-08-24T03:10:21;8.10;;;3.47;;
81154;SDS011;70631;50.436;7.826;2023-08-24T03:12:46;4.43;;;3.17;;
81154;SDS011;70631;50.436;7.826;2023-08-24T03:15:12;4.60;;;3.47;;
81154;SDS011;70631;50.436;7.826;2023-08-24T03:17:37;6.53;;;3.30;;
81154;SDS011;70631;50.436;7.826;2023-08-24T03:20:02;4.27;;;3.70;;
81154;SDS011;70631;50.436;7.826;2023-08-24T03:22:28;3.63;;;3.30;;
81154;SDS011;70631;50.436;7.826;2023-08-24T03:24:53;4.37;;;2.93;;
81154;SDS011;70631;50.436;7.826;2023-08-24T03:27:18;3.67;;;3.07;;
81154;SDS011;70631;50.436;7.826;2023-08-24T03:29:43;6.07;;;3.07;;
81154;SDS011;70631;50.436;7.826;2023-08-24T03:32:09;5.80;;;3.10;;
81154;SDS011;70631;50.436;7.826;2023-08-24T03:34:34;5.60;;;3.27;;
81154;SDS011;70631;50.436;7.826;2023-08-24T03:36:59;5.97;;;3.37;;
81154;SDS011;70631;50.436;7.826;2023-08-24T03:39:24;4.97;;;3.37;;
81154;SDS011;70631;50.436;7.826;2023-08-24T03:41:50;3.00;;;2.63;;
81154;SDS011;70631;50.436;7.826;2023-08-24T03:44:15;5.30;;;4.03;;
81154;SDS011;70631;50.436;7.826;2023-08-24T03:46:40;6.60;;;3.43;;
81154;SDS011;70631;50.436;7.826;2023-08-24T03:49:06;4.50;;;3.60;;
81154;SDS011;70631;50.436;7.826;2023-08-24T03:51:31;4.03;;;2.90;;
81154;SDS011;70631;50.436;7.826;2023-08-24T03:53:56;6.60;;;3.27;;
81154;SDS011;70631;50.436;7.826;2023-08-24T03:56:22;3.43;;;2.50;;
81154;SDS011;70631;50.436;7.826;2023-08-24T03:58:47;5.37;;;3.07;;
81154;SDS011;70631;50.436;7.826;2023-08-24T04:01:12;3.97;;;3.50;;
81154;SDS011;70631;50.436;7.826;2023-08-24T04:03:37;9.77;;;3.87;;
81154;SDS011;70631;50.436;7.826;2023-08-24T04:06:03;5.90;;;3.88;;
81154;SDS011;70631;50.436;7.826;2023-08-24T04:08:28;6.65;;;4.25;;
81154;SDS011;70631;50.436;7.826;2023-08-24T04:10:54;8.97;;;3.83;;
81154;SDS011;70631;50.436;7.826;2023-08-24T04:13:19;4.30;;;3.45;;
81154;SDS011;70631;50.436;7.826;2023-08-24T04:15:45;5.10;;;3.58;;
81154;SDS011;70631;50.436;7.826;2023-08-24T04:18:10;5.23;;;3.67;;
81154;SDS011;70631;50.436;7.826;2023-08-24T04:20:36;6.55;;;3.67;;
81154;SDS011;70631;50.436;7.826;2023-08-24T04:23:01;4.57;;;3.80;;
81154;SDS011;70631;50.436;7.826;2023-08-24T04:25:27;5.15;;;3.35;;
81154;SDS011;70631;50.436;7.826;2023-08-24T04:27:52;5.03;;;3.53;;
81154;SDS011;70631;50.436;7.826;2023-08-24T04:30:17;6.37;;;3.60;;
81154;SDS011;70631;50.436;7.826;2023-08-24T04:32:43;3.67;;;3.37;;
81154;SDS011;70631;50.436;7.826;2023-08-24T04:35:08;5.37;;;3.57;;
81154;SDS011;70631;50.436;7.826;2023-08-24T04:37:33;6.05;;;3.60;;
81154;SDS011;70631;50.436;7.826;2023-08-24T04:39:59;3.43;;;2.83;;
81154;SDS011;70631;50.436;7.826;2023-08-24T04:42:24;4.87;;;3.53;;
81154;SDS011;70631;50.436;7.826;2023-08-24T04:44:50;14.45;;;4.40;;
81154;SDS011;70631;50.436;7.826;2023-08-24T04:47:16;5.32;;;3.95;;
81154;SDS011;70631;50.436;7.826;2023-08-24T04:49:41;8.43;;;4.47;;
81154;SDS011;70631;50.436;7.826;2023-08-24T04:52:06;5.40;;;3.47;;
81154;SDS011;70631;50.436;7.826;2023-08-24T04:54:32;6.53;;;4.10;;
81154;SDS011;70631;50.436;7.826;2023-08-24T04:56:58;7.00;;;3.90;;
81154;SDS011;70631;50.436;7.826;2023-08-24T04:59:23;4.95;;;3.80;;
81154;SDS011;70631;50.436;7.826;2023-08-24T05:01:48;8.63;;;4.17;;
81154;SDS011;70631;50.436;7.826;2023-08-24T05:04:13;8.67;;;4.37;;
81154;SDS011;70631;50.436;7.826;2023-08-24T05:06:39;4.17;;;3.37;;
81154;SDS011;70631;50.436;7.826;2023-08-24T05:09:04;3.92;;;3.50;;
81154;SDS011;70631;50.436;7.826;2023-08-24T05:11:29;6.73;;;3.83;;
81154;SDS011;70631;50.436;7.826;2023-08-24T05:13:55;6.20;;;3.40;;
81154;SDS011;70631;50.436;7.826;2023-08-24T05:16:21;3.38;;;3.08;;
81154;SDS011;70631;50.436;7.826;2023-08-24T05:18:47;6.13;;;3.40;;
81154;SDS011;70631;50.436;7.826;2023-08-24T05:21:12;9.93;;;3.60;;
81154;SDS011;70631;50.436;7.826;2023-08-24T05:23:37;5.63;;;3.15;;
81154;SDS011;70631;50.436;7.826;2023-08-24T05:26:03;5.90;;;3.90;;
81154;SDS011;70631;50.436;7.826;2023-08-24T05:28:29;5.43;;;3.47;;
81154;SDS011;70631;50.436;7.826;2023-08-24T05:30:55;7.43;;;3.92;;
81154;SDS011;70631;50.436;7.826;2023-08-24T05:33:21;8.32;;;4.20;;
81154;SDS011;70631;50.436;7.826;2023-08-24T05:35:48;4.30;;;3.53;;
81154;SDS011;70631;50.436;7.826;2023-08-24T05:38:14;6.75;;;3.95;;
81154;SDS011;70631;50.436;7.826;2023-08-24T05:40:39;6.25;;;4.38;;
81154;SDS011;70631;50.436;7.826;2023-08-24T05:43:07;4.78;;;3.78;;
81154;SDS011;70631;50.436;7.826;2023-08-24T05:45:32;5.30;;;3.70;;
81154;SDS011;70631;50.436;7.826;2023-08-24T05:47:58;4.30;;;3.50;;
81154;SDS011;70631;50.436;7.826;2023-08-24T05:50:24;6.53;;;4.27;;
81154;SDS011;70631;50.436;7.826;2023-08-24T05:52:49;4.88;;;4.03;;
81154;SDS011;70631;50.436;7.826;2023-08-24T05:55:15;4.55;;;4.15;;
81154;SDS011;70631;50.436;7.826;2023-08-24T05:57:41;5.70;;;4.35;;
81154;SDS011;70631;50.436;7.826;2023-08-24T06:00:06;5.63;;;4.43;;
81154;SDS011;70631;50.436;7.826;2023-08-24T06:02:34;5.78;;;4.30;;
81154;SDS011;70631;50.436;7.826;2023-08-24T06:05:00;5.60;;;4.40;;
81154;SDS011;70631;50.436;7.826;2023-08-24T06:07:25;8.47;;;5.17;;
81154;SDS011;70631;50.436;7.826;2023-08-24T06:09:51;9.33;;;5.33;;
81154;SDS011;70631;50.436;7.826;2023-08-24T06:12:16;6.60;;;4.93;;
81154;SDS011;70631;50.436;7.826;2023-08-24T06:14:41;7.43;;;4.10;;
81154;SDS011;70631;50.436;7.826;2023-08-24T06:17:06;6.70;;;4.40;;
81154;SDS011;70631;50.436;7.826;2023-08-24T06:19:32;6.40;;;4.60;;
81154;SDS011;70631;50.436;7.826;2023-08-24T06:21:57;7.07;;;4.60;;
81154;SDS011;70631;50.436;7.826;2023-08-24T06:24:22;6.23;;;4.43;;
81154;SDS011;70631;50.436;7.826;2023-08-24T06:26:47;6.80;;;5.40;;
81154;SDS011;70631;50.436;7.826;2023-08-24T06:29:12;8.53;;;4.87;;
81154;SDS011;70631;50.436;7.826;2023-08-24T06:31:38;6.10;;;4.87;;
81154;SDS011;70631;50.436;7.826;2023-08-24T06:34:03;9.63;;;4.50;;
81154;SDS011;70631;50.436;7.826;2023-08-24T06:36:28;6.67;;;4.90;;
81154;SDS011;70631;50.436;7.826;2023-08-24T06:38:54;8.30;;;4.25;;
81154;SDS011;70631;50.436;7.826;2023-08-24T06:41:19;6.53;;;4.10;;
81154;SDS011;70631;50.436;7.826;2023-08-24T06:43:45;5.33;;;3.70;;
81154;SDS011;70631;50.436;7.826;2023-08-24T06:46:10;5.03;;;4.20;;
81154;SDS011;70631;50.436;7.826;2023-08-24T06:48:35;4.60;;;4.20;;
81154;SDS011;70631;50.436;7.826;2023-08-24T06:51:02;4.53;;;4.00;;
81154;SDS011;70631;50.436;7.826;2023-08-24T06:53:28;4.72;;;3.72;;
81154;SDS011;70631;50.436;7.826;2023-08-24T06:55:56;5.75;;;3.78;;
81154;SDS011;70631;50.436;7.826;2023-08-24T06:58:22;5.38;;;3.70;;
81154;SDS011;70631;50.436;7.826;2023-08-24T07:00:47;5.00;;;3.10;;
81154;SDS011;70631;50.436;7.826;2023-08-24T07:03:15;3.92;;;3.53;;
81154;SDS011;70631;50.436;7.826;2023-08-24T07:05:41;5.10;;;3.35;;
81154;SDS011;70631;50.436;7.826;2023-08-24T07:08:06;4.43;;;3.90;;
81154;SDS011;70631;50.436;7.826;2023-08-24T07:10:31;6.10;;;4.00;;
81154;SDS011;70631;50.436;7.826;2023-08-24T07:12:58;4.10;;;3.67;;
81154;SDS011;70631;50.436;7.826;2023-08-24T07:15:23;6.03;;;4.07;;
81154;SDS011;70631;50.436;7.826;2023-08-24T07:17:48;5.07;;;4.40;;
81154;SDS011;70631;50.436;7.826;2023-08-24T07:20:13;6.77;;;4.33;;
81154;SDS011;70631;50.436;7.826;2023-08-24T07:22:39;11.20;;;4.72;;
81154;SDS011;70631;50.436;7.826;2023-08-24T07:25:05;7.27;;;4.67;;
81154;SDS011;70631;50.436;7.826;2023-08-24T07:27:33;5.38;;;4.00;;
81154;SDS011;70631;50.436;7.826;2023-08-24T07:29:59;7.30;;;3.92;;
81154;SDS011;70631;50.436;7.826;2023-08-24T07:32:28;5.65;;;3.92;;
81154;SDS011;70631;50.436;7.826;2023-08-24T07:34:54;9.60;;;4.20;;
81154;SDS011;70631;50.436;7.826;2023-08-24T07:37:19;5.70;;;3.50;;
81154;SDS011;70631;50.436;7.826;2023-08-24T07:39:45;4.30;;;3.90;;
81154;SDS011;70631;50.436;7.826;2023-08-24T07:42:10;8.77;;;3.40;;
81154;SDS011;70631;50.436;7.826;2023-08-24T07:44:35;5.90;;;3.30;;
81154;SDS011;70631;50.436;7.826;2023-08-24T07:47:01;4.13;;;3.37;;
81154;SDS011;70631;50.436;7.826;2023-08-24T07:49:26;6.85;;;3.40;;
81154;SDS011;70631;50.436;7.826;2023-08-24T07:51:52;3.57;;;2.67;;
81154;SDS011;70631;50.436;7.826;2023-08-24T07:54:17;5.60;;;3.00;;
81154;SDS011;70631;50.436;7.826;2023-08-24T07:56:43;3.40;;;3.10;;
81154;SDS011;70631;50.436;7.826;2023-08-24T07:59:08;3.37;;;2.80;;
81154;SDS011;70631;50.436;7.826;2023-08-24T08:01:33;3.87;;;3.33;;
81154;SDS011;70631;50.436;7.826;2023-08-24T08:03:58;9.37;;;3.10;;
81154;SDS011;70631;50.436;7.826;2023-08-24T08:06:25;6.90;;;3.35;;
81154;SDS011;70631;50.436;7.826;2023-08-24T08:08:51;4.25;;;2.95;;
81154;SDS011;70631;50.436;7.826;2023-08-24T08:11:17;3.90;;;3.13;;
81154;SDS011;70631;50.436;7.826;2023-08-24T08:13:43;4.35;;;3.35;;
81154;SDS011;70631;50.436;7.826;2023-08-24T08:16:09;6.50;;;3.35;;
81154;SDS011;70631;50.436;7.826;2023-08-24T08:18:35;13.03;;;3.33;;
81154;SDS011;70631;50.436;7.826;2023-08-24T08:21:01;8.75;;;3.30;;
81154;SDS011;70631;50.436;7.826;2023-08-24T08:23:33;3.55;;;2.92;;
81154;SDS011;70631;50.436;7.826;2023-08-24T08:25:58;5.93;;;3.33;;
81154;SDS011;70631;50.436;7.826;2023-08-24T08:28:23;4.87;;;2.70;;
81154;SDS011;70631;50.436;7.826;2023-08-24T08:30:48;5.67;;;3.07;;
81154;SDS011;70631;50.436;7.826;2023-08-24T08:33:14;3.85;;;2.90;;
81154;SDS011;70631;50.436;7.826;2023-08-24T08:35:39;6.37;;;3.37;;
81154;SDS011;70631;50.436;7.826;2023-08-24T08:38:05;5.38;;;2.90;;
81154;SDS011;70631;50.436;7.826;2023-08-24T08:40:32;5.70;;;3.10;;
81154;SDS011;70631;50.436;7.826;2023-08-24T08:43:02;4.50;;;3.25;;
81154;SDS011;70631;50.436;7.826;2023-08-24T08:45:27;3.50;;;2.60;;
81154;SDS011;70631;50.436;7.826;2023-08-24T08:47:56;4.25;;;2.70;;
81154;SDS011;70631;50.436;7.826;2023-08-24T08:50:24;4.15;;;2.80;;
81154;SDS011;70631;50.436;7.826;2023-08-24T08:52:49;5.18;;;3.00;;
81154;SDS011;70631;50.436;7.826;2023-08-24T08:55:15;6.87;;;3.20;;
81154;SDS011;70631;50.436;7.826;2023-08-24T08:57:40;3.45;;;3.08;;
81154;SDS011;70631;50.436;7.826;2023-08-24T09:00:08;5.78;;;2.95;;
81154;SDS011;70631;50.436;7.826;2023-08-24T09:02:35;5.20;;;2.50;;
81154;SDS011;70631;50.436;7.826;2023-08-24T09:05:01;8.30;;;3.35;;
81154;SDS011;70631;50.436;7.826;2023-08-24T09:07:29;6.45;;;3.35;;
81154;SDS011;70631;50.436;7.826;2023-08-24T09:09:54;4.22;;;2.85;;
81154;SDS011;70631;50.436;7.826;2023-08-24T09:12:19;4.30;;;2.83;;
81154;SDS011;70631;50.436;7.826;2023-08-24T09:14:45;7.90;;;2.88;;
81154;SDS011;70631;50.436;7.826;2023-08-24T09:17:10;7.00;;;3.17;;
81154;SDS011;70631;50.436;7.826;2023-08-24T09:19:44;3.85;;;2.70;;
81154;SDS011;70631;50.436;7.826;2023-08-24T09:22:10;3.43;;;2.67;;
81154;SDS011;70631;50.436;7.826;2023-08-24T09:24:35;4.67;;;2.90;;
81154;SDS011;70631;50.436;7.826;2023-08-24T09:27:22;5.10;;;2.90;;
81154;SDS011;70631;50.436;7.826;2023-08-24T09:29:48;6.10;;;3.03;;
81154;SDS011;70631;50.436;7.826;2023-08-24T09:32:15;4.70;;;3.28;;
81154;SDS011;70631;50.436;7.826;2023-08-24T09:34:41;4.45;;;2.33;;
81154;SDS011;70631;50.436;7.826;2023-08-24T09:37:14;2.55;;;2.33;;
81154;SDS011;70631;50.436;7.826;2023-08-24T09:39:41;7.07;;;2.30;;
81154;SDS011;70631;50.436;7.826;2023-08-24T09:42:06;5.40;;;2.38;;
81154;SDS011;70631;50.436;7.826;2023-08-24T09:44:33;4.50;;;2.40;;
81154;SDS011;70631;50.436;7.826;2023-08-24T09:46:58;3.43;;;2.43;;
81154;SDS011;70631;50.436;7.826;2023-08-24T09:49:24;2.50;;;2.22;;
81154;SDS011;70631;50.436;7.826;2023-08-24T09:51:51;3.33;;;2.40;;
81154;SDS011;70631;50.436;7.826;2023-08-24T09:54:21;6.28;;;2.78;;
81154;SDS011;70631;50.436;7.826;2023-08-24T09:56:51;4.82;;;2.50;;
81154;SDS011;70631;50.436;7.826;2023-08-24T09:59:17;3.80;;;2.20;;
81154;SDS011;70631;50.436;7.826;2023-08-24T10:01:50;2.53;;;2.33;;
81154;SDS011;70631;50.436;7.826;2023-08-24T10:04:22;3.15;;;2.45;;
81154;SDS011;70631;50.436;7.826;2023-08-24T10:06:51;3.30;;;1.92;;
81154;SDS011;70631;50.436;7.826;2023-08-24T10:09:27;3.08;;;2.03;;
81154;SDS011;70631;50.436;7.826;2023-08-24T10:12:02;3.58;;;2.65;;
81154;SDS011;70631;50.436;7.826;2023-08-24T10:14:34;4.05;;;2.33;;
81154;SDS011;70631;50.436;7.826;2023-08-24T10:17:06;3.42;;;2.33;;
81154;SDS011;70631;50.436;7.826;2023-08-24T10:19:33;5.47;;;2.38;;
81154;SDS011;70631;50.436;7.826;2023-08-24T10:21:59;5.32;;;2.42;;
81154;SDS011;70631;50.436;7.826;2023-08-24T10:24:25;3.50;;;2.20;;
81154;SDS011;70631;50.436;7.826;2023-08-24T10:26:51;3.00;;;2.10;;
81154;SDS011;70631;50.436;7.826;2023-08-24T10:29:17;3.63;;;2.50;;
81154;SDS011;70631;50.436;7.826;2023-08-24T10:31:43;3.25;;;2.80;;
81154;SDS011;70631;50.436;7.826;2023-08-24T10:34:09;2.88;;;2.35;;
81154;SDS011;70631;50.436;7.826;2023-08-24T10:36:38;2.67;;;2.47;;
81154;SDS011;70631;50.436;7.826;2023-08-24T10:39:04;4.20;;;2.00;;
81154;SDS011;70631;50.436;7.826;2023-08-24T10:41:45;3.13;;;2.05;;
81154;SDS011;70631;50.436;7.826;2023-08-24T10:44:47;3.47;;;2.55;;
81154;SDS011;70631;50.436;7.826;2023-08-24T10:49:44;2.53;;;2.33;;
81154;SDS011;70631;50.436;7.826;2023-08-24T10:52:23;2.92;;;2.28;;
81154;SDS011;70631;50.436;7.826;2023-08-24T10:54:50;4.13;;;2.03;;
81154;SDS011;70631;50.436;7.826;2023-08-24T10:57:20;4.03;;;2.60;;
81154;SDS011;70631;50.436;7.826;2023-08-24T10:59:58;3.83;;;2.40;;
81154;SDS011;70631;50.436;7.826;2023-08-24T11:02:46;4.47;;;2.33;;
81154;SDS011;70631;50.436;7.826;2023-08-24T11:10:21;4.03;;;2.47;;
81154;SDS011;70631;50.436;7.826;2023-08-24T11:13:03;4.68;;;2.47;;
81154;SDS011;70631;50.436;7.826;2023-08-24T11:15:30;4.15;;;2.60;;
81154;SDS011;70631;50.436;7.826;2023-08-24T11:21:05;3.45;;;2.25;;
81154;SDS011;70631;50.436;7.826;2023-08-24T11:23:31;6.63;;;2.40;;
81154;SDS011;70631;50.436;7.826;2023-08-24T11:25:58;3.58;;;2.33;;
81154;SDS011;70631;50.436;7.826;2023-08-24T11:28:25;4.70;;;3.00;;
81154;SDS011;70631;50.436;7.826;2023-08-24T11:30:54;4.38;;;2.72;;
81154;SDS011;70631;50.436;7.826;2023-08-24T11:33:34;3.55;;;2.22;;
81154;SDS011;70631;50.436;7.826;2023-08-24T11:36:00;3.40;;;2.28;;
81154;SDS011;70631;50.436;7.826;2023-08-24T11:38:36;3.05;;;2.05;;
81154;SDS011;70631;50.436;7.826;2023-08-24T11:43:36;3.88;;;2.47;;
81154;SDS011;70631;50.436;7.826;2023-08-24T11:46:02;7.40;;;2.10;;
81154;SDS011;70631;50.436;7.826;2023-08-24T11:48:28;5.72;;;2.40;;
81154;SDS011;70631;50.436;7.826;2023-08-24T11:50:55;3.35;;;2.10;;
81154;SDS011;70631;50.436;7.826;2023-08-24T11:53:22;4.35;;;1.88;;
81154;SDS011;70631;50.436;7.826;2023-08-24T11:55:49;4.10;;;2.13;;
81154;SDS011;70631;50.436;7.826;2023-08-24T11:58:17;5.82;;;2.00;;
81154;SDS011;70631;50.436;7.826;2023-08-24T12:00:42;3.10;;;2.10;;
81154;SDS011;70631;50.436;7.826;2023-08-24T12:03:09;5.05;;;2.08;;
81154;SDS011;70631;50.436;7.826;2023-08-24T12:05:35;3.30;;;2.10;;
81154;SDS011;70631;50.436;7.826;2023-08-24T12:08:01;7.47;;;3.00;;
81154;SDS011;70631;50.436;7.826;2023-08-24T12:10:26;3.40;;;2.13;;
81154;SDS011;70631;50.436;7.826;2023-08-24T12:13:00;3.83;;;2.47;;
81154;SDS011;70631;50.436;7.826;2023-08-24T12:15:27;5.57;;;2.13;;
81154;SDS011;70631;50.436;7.826;2023-08-24T12:17:53;2.78;;;2.15;;
81154;SDS011;70631;50.436;7.826;2023-08-24T12:20:19;5.03;;;2.20;;
81154;SDS011;70631;50.436;7.826;2023-08-24T12:22:52;3.83;;;2.28;;
81154;SDS011;70631;50.436;7.826;2023-08-24T12:25:18;3.38;;;1.85;;
81154;SDS011;70631;50.436;7.826;2023-08-24T12:27:46;5.00;;;2.45;;
81154;SDS011;70631;50.436;7.826;2023-08-24T12:30:12;2.53;;;2.10;;
81154;SDS011;70631;50.436;7.826;2023-08-24T12:32:44;2.50;;;1.90;;
81154;SDS011;70631;50.436;7.826;2023-08-24T12:35:15;2.35;;;2.05;;
81154;SDS011;70631;50.436;7.826;2023-08-24T12:37:40;4.50;;;2.50;;
81154;SDS011;70631;50.436;7.826;2023-08-24T12:40:06;4.60;;;2.33;;
81154;SDS011;70631;50.436;7.826;2023-08-24T12:42:32;4.97;;;2.20;;
81154;SDS011;70631;50.436;7.826;2023-08-24T12:44:58;2.55;;;2.20;;
81154;SDS011;70631;50.436;7.826;2023-08-24T12:47:23;2.10;;;1.90;;
81154;SDS011;70631;50.436;7.826;2023-08-24T12:49:48;3.28;;;2.40;;
81154;SDS011;70631;50.436;7.826;2023-08-24T12:52:15;2.75;;;2.38;;
81154;SDS011;70631;50.436;7.826;2023-08-24T12:54:41;3.20;;;1.98;;
81154;SDS011;70631;50.436;7.826;2023-08-24T12:57:07;6.40;;;2.63;;
81154;SDS011;70631;50.436;7.826;2023-08-24T12:59:32;5.33;;;2.23;;
81154;SDS011;70631;50.436;7.826;2023-08-24T13:01:57;4.83;;;2.60;;
81154;SDS011;70631;50.436;7.826;2023-08-24T13:04:22;5.13;;;2.40;;
81154;SDS011;70631;50.436;7.826;2023-08-24T13:06:48;5.83;;;2.50;;
81154;SDS011;70631;50.436;7.826;2023-08-24T13:09:13;3.00;;;2.60;;
81154;SDS011;70631;50.436;7.826;2023-08-24T13:11:38;4.90;;;2.67;;
81154;SDS011;70631;50.436;7.826;2023-08-24T13:14:04;3.28;;;2.45;;
81154;SDS011;70631;50.436;7.826;2023-08-24T13:16:29;4.30;;;2.73;;
81154;SDS011;70631;50.436;7.826;2023-08-24T13:18:54;4.23;;;3.17;;
81154;SDS011;70631;50.436;7.826;2023-08-24T13:21:20;6.17;;;2.77;;
81154;SDS011;70631;50.436;7.826;2023-08-24T13:23:45;4.18;;;2.75;;
81154;SDS011;70631;50.436;7.826;2023-08-24T13:26:17;7.57;;;3.10;;
81154;SDS011;70631;50.436;7.826;2023-08-24T13:28:44;4.60;;;2.50;;
81154;SDS011;70631;50.436;7.826;2023-08-24T13:31:10;3.42;;;2.75;;
81154;SDS011;70631;50.436;7.826;2023-08-24T13:33:35;4.13;;;2.80;;
81154;SDS011;70631;50.436;7.826;2023-08-24T13:36:01;5.40;;;3.00;;
81154;SDS011;70631;50.436;7.826;2023-08-24T13:38:27;5.30;;;3.20;;
81154;SDS011;70631;50.436;7.826;2023-08-24T13:40:52;5.20;;;3.17;;
81154;SDS011;70631;50.436;7.826;2023-08-24T13:43:17;3.47;;;2.80;;
81154;SDS011;70631;50.436;7.826;2023-08-24T13:45:44;5.95;;;3.25;;
81154;SDS011;70631;50.436;7.826;2023-08-24T13:48:10;7.47;;;3.07;;
81154;SDS011;70631;50.436;7.826;2023-08-24T13:50:35;6.03;;;3.78;;
81154;SDS011;70631;50.436;7.826;2023-08-24T13:53:00;3.63;;;2.67;;
81154;SDS011;70631;50.436;7.826;2023-08-24T13:55:26;6.37;;;3.30;;
81154;SDS011;70631;50.436;7.826;2023-08-24T13:57:51;6.00;;;3.50;;
81154;SDS011;70631;50.436;7.826;2023-08-24T14:00:16;5.67;;;3.80;;
81154;SDS011;70631;50.436;7.826;2023-08-24T14:02:42;3.20;;;2.90;;
81154;SDS011;70631;50.436;7.826;2023-08-24T14:05:07;7.10;;;3.70;;
81154;SDS011;70631;50.436;7.826;2023-08-24T14:07:34;5.03;;;3.38;;
81154;SDS011;70631;50.436;7.826;2023-08-24T14:10:00;5.55;;;3.53;;
81154;SDS011;70631;50.436;7.826;2023-08-24T14:12:26;5.30;;;3.30;;
81154;SDS011;70631;50.436;7.826;2023-08-24T14:14:51;4.55;;;3.17;;
81154;SDS011;70631;50.436;7.826;2023-08-24T14:17:16;3.67;;;3.30;;
81154;SDS011;70631;50.436;7.826;2023-08-24T14:19:42;6.27;;;3.50;;
81154;SDS011;70631;50.436;7.826;2023-08-24T14:22:07;7.47;;;3.10;;
81154;SDS011;70631;50.436;7.826;2023-08-24T14:24:32;3.80;;;3.10;;
81154;SDS011;70631;50.436;7.826;2023-08-24T14:26:59;4.45;;;3.45;;
81154;SDS011;70631;50.436;7.826;2023-08-24T14:29:25;5.70;;;3.47;;
81154;SDS011;70631;50.436;7.826;2023-08-24T14:31:50;4.93;;;3.10;;
81154;SDS011;70631;50.436;7.826;2023-08-24T14:34:15;4.93;;;3.37;;
81154;SDS011;70631;50.436;7.826;2023-08-24T14:36:40;3.67;;;3.03;;
81154;SDS011;70631;50.436;7.826;2023-08-24T14:39:06;5.47;;;3.67;;
81154;SDS011;70631;50.436;7.826;2023-08-24T14:41:32;6.88;;;3.75;;
81154;SDS011;70631;50.436;7.826;2023-08-24T14:43:57;4.90;;;3.60;;
81154;SDS011;70631;50.436;7.826;2023-08-24T14:46:23;5.18;;;3.55;;
81154;SDS011;70631;50.436;7.826;2023-08-24T14:48:48;6.17;;;4.20;;
81154;SDS011;70631;50.436;7.826;2023-08-24T14:51:14;3.70;;;3.40;;
81154;SDS011;70631;50.436;7.826;2023-08-24T14:53:39;3.83;;;3.20;;
81154;SDS011;70631;50.436;7.826;2023-08-24T14:56:04;5.40;;;3.73;;
81154;SDS011;70631;50.436;7.826;2023-08-24T14:58:30;4.72;;;3.70;;
81154;SDS011;70631;50.436;7.826;2023-08-24T15:00:56;6.63;;;3.70;;
81154;SDS011;70631;50.436;7.826;2023-08-24T15:03:22;5.55;;;3.30;;
81154;SDS011;70631;50.436;7.826;2023-08-24T15:08:29;4.35;;;3.60;;
81154;SDS011;70631;50.436;7.826;2023-08-24T15:10:55;5.43;;;3.90;;